Pagrindinis puslapis
METAR-TAF:

METAR-TAF

Oro uostai :

Santa Marta, Kolumbija

platuma: 11-08N, ilguma: 074-14W, Aukštis: 4 m

Dabartinis oras

Ataskaita buvo paskelbta 1 valandą ir 7 minutes, ne 12:00 UTC
Vėjas 3 kt iš Šiaurės
Temperatūra 24°C
Drėgmė 94%
Slėgis 1014 hPa
Matomumas 10 km arba daugiau

METAR: SKSM 281200Z 01003KT 9999 NSC 24/23 A2994

Laikas: 08:07 (13:07 UTC)


TAF: trūkstamas

Orai ataskaitas ir orų prognozės (METAR, TAF).

turimą stotys yra geltonos ir raudonos taškus žemėlapyje.

Perkelti pele per norėdami pamatyti stoties vardą.

Tada spustelėkite, norėdami matyti oro stebėjimo ir prognozės.

Norėdami pakeisti žemėlapį: spustelėkite ant žalios mygtukų su juodo kryžiaus žemyn,; žalią mygtuką su brūkšneliu, jei norite nutolinti; arba žalių rodyklių gretimoms žemėlapius.


METAR-TAF: